Kidderminster, United Kingdom
Current Conditions -  °F | °C
As of 9:50 AM on Friday 31 Oct 2014 (Local Time) from EGBB Reporting Station
Clear Clear  
Wind Chill: 59°   Ceiling: Unl
Heat Index: 59°   Visibility: 4mi
Dew Point: 57°   Wind: 8mph
Humidity: 94%   Direction: 150°SSE
Pressure: 29.97"   Gusts: NA
Location:  52.39°N, 2.25°W
Report Text: EGBB 310950Z 15007KT 6000 NSC 15/14 Q1015
Loading
Personal Weather Stations






























Interactive Weather Map
Tropical Storm Tracking
New forecast layout! Learn more

10-Day Weather Forecast

Advertisements
Track Severe Weather on mobile